Home > Products > Valid Products > TAF

000
FTUS43 KFGF 051121
TAFGFK
TAF
KGFK 051121Z 0512/0612 13011KT P6SM SCT100
     FM051700 01010KT P6SM VCTS BKN050CB
     FM052100 36010KT P6SM BKN080=



000
FTUS43 KFGF 051121
TAFFAR
TAF
KFAR 051121Z 0512/0612 14011KT P6SM SCT100
     FM052000 01010KT P6SM VCTS BKN050CB
     FM060200 36010KT P6SM BKN080=



000
FTUS43 KFGF 050813 AAA
TAFGFK
TAF AMD
KGFK 050813Z 0508/0606 16010KT P6SM BKN150
      TEMPO 0508/0509 5SM -TSRA BKN040CB
     FM051500 20010KT P6SM BKN025
     FM051800 28010KT P6SM VCTS BKN040CB
     FM052100 36010KT P6SM BKN080=



000
FTUS43 KFGF 050520
TAFFAR
TAF
KFAR 050520Z 0506/0606 17012KT P6SM BKN250
     FM051500 18012KT P6SM SCT250
     FM052100 23012KT P6SM VCTS BKN040CB=



000
FTUS43 KFGF 050520
TAFGFK
TAF
KGFK 050520Z 0506/0606 16010KT P6SM BKN150
      TEMPO 0506/0508 5SM -TSRA BKN040CB
     FM051500 20010KT P6SM BKN025
     FM051800 28010KT P6SM VCTS BKN040CB
     FM052100 36010KT P6SM BKN080=



000
FTUS43 KFGF 050520
TAFFAR
TAF
KFAR 050520Z 0506/0606 17012KT P6SM BKN250
     FM051500 18012KT P6SM SCT250
     FM052100 23012KT P6SM VCTS BKN040CB=



000
FTUS43 KFGF 050520
TAFGFK
TAF
KGFK 050520Z 0506/0606 16010KT P6SM BKN150
      TEMPO 0506/0508 5SM -TSRA BKN040CB
     FM051500 20010KT P6SM BKN025
     FM051800 28010KT P6SM VCTS BKN040CB
     FM052100 36010KT P6SM BKN080=



000
FTUS43 KFGF 042355
TAFGFK
TAF
KGFK 042355Z 0500/0524 18013KT P6SM SCT250
     FM050300 17009KT P6SM VCTS BKN060CB
     FM050600 17009KT P6SM BKN120
     FM051500 17010KT P6SM BKN100=



000
FTUS43 KFGF 042355
TAFFAR
TAF
KFAR 042355Z 0500/0524 17013KT P6SM SKC
     FM050400 17009KT P6SM VCTS BKN070CB
     FM050700 17009KT P6SM BKN250
     FM051500 17010KT P6SM BKN080=



000
FTUS43 KFGF 041742
TAFGFK
TAF
KGFK 041742Z 0418/0518 18010KT 4SM HZ SCT040
     FM042100 18012KT 5SM HZ BKN250
     FM050100 18008KT P6SM BKN150
     FM050400 16008KT P6SM VCTS SCT040CB BKN100=



000
FTUS43 KFGF 041742
TAFFAR
TAF
KFAR 041742Z 0418/0518 16010KT 4SM HZ SCT040
     FM042200 17012KT 5SM HZ BKN250
     FM050300 17008KT P6SM BKN150
     FM050600 16008KT P6SM VCTS SCT040CB BKN100=



000
FTUS43 KFGF 041742
TAFFAR
TAF
KFAR 041742Z 0418/0518 16010KT 4SM HZ SCT040
     FM042200 17012KT 5SM HZ BKN250
     FM050300 17008KT P6SM BKN150
     FM050600 16008KT P6SM VCTS SCT040CB BKN100=



000
FTUS43 KFGF 041742
TAFGFK
TAF
KGFK 041742Z 0418/0518 18010KT 4SM HZ SCT040
     FM042100 18012KT 5SM HZ BKN250
     FM050100 18008KT P6SM BKN150
     FM050400 16008KT P6SM VCTS SCT040CB BKN100=



000
FTUS43 KFGF 041120
TAFFAR
TAF
KFAR 041120Z 0412/0512 VRB04KT 3SM HZ SCT040
     FM041600 18012KT P6SM SCT250
     FM042300 18008KT P6SM BKN100=



000
FTUS43 KFGF 041120
TAFGFK
TAF
KGFK 041120Z 0412/0512 VRB04KT 3SM HZ SCT040
     FM041600 18012KT P6SM SCT250
     FM042300 18008KT P6SM BKN100=



000
FTUS43 KFGF 040520
TAFGFK
TAF
KGFK 040520Z 0406/0506 VRB06KT 4SM HZ SCT040
     FM041500 18012KT P6SM SCT250
     FM042100 18012KT P6SM BKN100=



000
FTUS43 KFGF 040520
TAFFAR
TAF
KFAR 040520Z 0406/0506 VRB06KT 3SM HZ SKC
      TEMPO 0409/0412 5SM
     FM041500 18012KT P6SM SCT250
     FM042100 18012KT P6SM BKN100=



000
FTUS43 KFGF 032320
TAFGFK
TAF
KGFK 032320Z 0400/0424 VRB06KT 3SM HZ SCT250
      TEMPO 0403/0406 5SM HZ
     FM041500 18010KT P6SM SKC=



000
FTUS43 KFGF 032320
TAFFAR
TAF
KFAR 032320Z 0400/0424 VRB06KT 3SM HZ SCT250
      TEMPO 0403/0406 5SM HZ
     FM041500 18010KT P6SM SKC=



000
FTUS43 KFGF 031720
TAFFAR
TAF
KFAR 031720Z 0318/0418 VRB05KT 1SM FU SCT250
      TEMPO 0318/0321 2SM FU
     FM040700 16007KT 4SM FU BKN250=



000
FTUS43 KFGF 031720
TAFGFK
TAF
KGFK 031720Z 0318/0418 VRB06KT 2SM FU FEW035
      TEMPO 0318/0321 3SM FU
     FM040600 17008KT 4SM FU FEW250=



000
FTUS43 KFGF 031720
TAFFAR
TAF
KFAR 031720Z 0318/0418 VRB05KT 1SM FU SCT250
      TEMPO 0318/0321 2SM FU
     FM040700 16007KT 4SM FU BKN250=



000
FTUS43 KFGF 031720
TAFGFK
TAF
KGFK 031720Z 0318/0418 VRB06KT 2SM FU FEW035
      TEMPO 0318/0321 3SM FU
     FM040600 17008KT 4SM FU FEW250=



000
FTUS43 KFGF 031433 AAA
TAFGFK
TAF AMD
KGFK 031433Z 0315/0412 VRB04KT 1SM BR BKN015
      TEMPO 0315/0316 2SM BR BKN025
     FM031600 VRB05KT P6SM BKN050
      TEMPO 0316/0318 5SM FU=



000
FTUS43 KFGF 031433 AAA
TAFGFK
TAF AMD
KGFK 031433Z 0315/0412 VRB04KT 1SM BR BKN015
      TEMPO 0315/0316 2SM BR BKN025
     FM031600 VRB05KT P6SM BKN050
      TEMPO 0316/0318 5SM FU=



000
FTUS43 KFGF 031432 AAA
TAFFAR
TAF AMD
KFAR 031432Z 0315/0412 VRB04KT 2SM HZ BKN035
     FM031600 VRB05KT P6SM BKN050=



000
FTUS43 KFGF 031432 AAA
TAFFAR
TAF AMD
KFAR 031432Z 0315/0412 VRB04KT 2SM HZ BKN035
     FM031600 VRB05KT P6SM BKN050=



000
FTUS43 KFGF 031122
TAFGFK
TAF
KGFK 031122Z 0312/0412 VRB04KT 4SM BR BKN050
      TEMPO 0312/0313 2SM BR BKN025
     FM031400 VRB05KT P6SM BKN050
      TEMPO 0314/0318 5SM FU=



000
FTUS43 KFGF 031122
TAFGFK
TAF
KGFK 031122Z 0312/0412 VRB04KT 4SM BR BKN050
      TEMPO 0312/0313 2SM BR BKN025
     FM031400 VRB05KT P6SM BKN050
      TEMPO 0314/0318 5SM FU=



000
FTUS43 KFGF 031122
TAFFAR
TAF
KFAR 031122Z 0312/0412 VRB04KT 5SM BR BKN050
     FM031400 VRB05KT P6SM BKN050=



000
FTUS43 KFGF 031122
TAFFAR
TAF
KFAR 031122Z 0312/0412 VRB04KT 5SM BR BKN050
     FM031400 VRB05KT P6SM BKN050=



000
FTUS43 KFGF 031107 AAA
TAFFAR
TAF AMD
KFAR 031107Z 0311/0406 18007KT 5SM BR SCT250
     FM031200 31006KT P6SM BKN200=



000
FTUS43 KFGF 031107 AAA
TAFFAR
TAF AMD
KFAR 031107Z 0311/0406 18007KT 5SM BR SCT250
     FM031200 31006KT P6SM BKN200=



000
FTUS43 KFGF 031042 AAC
TAFGFK
TAF AMD
KGFK 031042Z 0311/0406 VRB03KT 1 1/2SM BR OVC015
     FM031200 VRB04KT 5SM FU BKN050=



000
FTUS43 KFGF 030918 AAB
TAFGFK
TAF AMD
KGFK 030918Z 0309/0406 VRB04KT 2SM FU BKN050
      TEMPO 0309/0313 BKN025=



000
FTUS43 KFGF 030707 AAA
TAFGFK
TAF AMD
KGFK 030707Z 0307/0406 VRB04KT 3SM FU BKN050=



000
FTUS43 KFGF 030707 AAA
TAFGFK
TAF AMD
KGFK 030707Z 0307/0406 VRB04KT 3SM FU BKN050=



000
FTUS43 KFGF 030520
TAFFAR
TAF
KFAR 030520Z 0306/0406 18007KT P6SM SCT250
     FM031200 31006KT P6SM BKN200=



000
FTUS43 KFGF 030520
TAFFAR
TAF
KFAR 030520Z 0306/0406 18007KT P6SM SCT250
     FM031200 31006KT P6SM BKN200=



000
FTUS43 KFGF 030520
TAFGFK
TAF
KGFK 030520Z 0306/0406 23006KT P6SM SCT050
     FM031200 35006KT P6SM SCT250=



000
FTUS43 KFGF 022344
TAFFAR
TAF
KFAR 022344Z 0300/0324 19008KT P6SM SCT200
     FM031200 24007KT P6SM BKN150=



000
FTUS43 KFGF 022344
TAFGFK
TAF
KGFK 022344Z 0300/0324 21007KT P6SM VCTS SCT040 BKN070CB
     FM030300 VRB03KT 5SM FU BKN200
     FM031200 27005KT P6SM SCT250=



000
FTUS43 KFGF 022344
TAFFAR
TAF
KFAR 022344Z 0300/0324 19008KT P6SM SCT200
     FM031200 24007KT P6SM BKN150=



000
FTUS43 KFGF 022344
TAFGFK
TAF
KGFK 022344Z 0300/0324 21007KT P6SM VCTS SCT040 BKN070CB
     FM030300 VRB03KT 5SM FU BKN200
     FM031200 27005KT P6SM SCT250=



000
FTUS43 KFGF 022008 AAB
TAFGFK
TAF AMD
KGFK 022008Z 0220/0318 19009G14KT P6SM VCTS SCT030CB
     FM022300 VRB03KT P6SM VCSH BKN100
     FM030500 27005KT P6SM SCT250=



000
FTUS43 KFGF 021805 AAA
TAFGFK
TAF AMD
KGFK 021805Z 0218/0318 19009G14KT P6SM SCT250
     FM022300 VRB03KT P6SM VCSH BKN100
     FM030500 27005KT P6SM SCT250=



000
FTUS43 KFGF 021805 AAA
TAFGFK
TAF AMD
KGFK 021805Z 0218/0318 19009G14KT P6SM SCT250
     FM022300 VRB03KT P6SM VCSH BKN100
     FM030500 27005KT P6SM SCT250=



000
FTUS43 KFGF 021720
TAFGFK
TAF
KGFK 021720Z 0218/0318 21007KT P6SM SCT250
     FM022300 VRB03KT P6SM VCSH BKN100
     FM030500 27005KT P6SM SCT250=



000
FTUS43 KFGF 021720
TAFFAR
TAF
KFAR 021720Z 0218/0318 18013KT P6SM SCT200
     FM022100 24007KT P6SM BKN120=



000
FTUS43 KFGF 021720
TAFGFK
TAF
KGFK 021720Z 0218/0318 21007KT P6SM SCT250
     FM022300 VRB03KT P6SM VCSH BKN100
     FM030500 27005KT P6SM SCT250=



000
FTUS43 KFGF 021720
TAFFAR
TAF
KFAR 021720Z 0218/0318 18013KT P6SM SCT200
     FM022100 24007KT P6SM BKN120=



    US Dept of Commerce
    National Oceanic and Atmospheric Administration
    National Weather Service
    1325 East West Highway
    Silver Spring, MD 20910
    Page Author: NWS Internet Services Team
Disclaimer
Information Quality
Credits
Glossary
Privacy Policy
Freedom of Information Act (FOIA)
About Us
Career Opportunities